Time;durP1;ratioP1;P1;durP2;ratioP2;P2;SDS_P1;SDS_P2;PMS_P1;PMS_P2;Temp;Humidity;BMP_temperature;BMP_pressure;BME280_temperature;BME280_humidity;BME280_pressure;Samples;Min_cycle;Max_cycle;Signal;HPM_P1;HPM_P2
2023/04/26 00:01:06;;;;;;;;;;;;;;;15.84;55.75;100372.59;4942699;29;19922;-83
2023/04/26 00:03:58;;;;;;;;;;;;;;;15.89;55.21;100383.28;4941923;29;19914;-83
2023/04/26 00:06:48;;;;;;;;;;;;;;;15.91;54.41;100372.75;4948429;29;19918;-82
2023/04/26 00:09:40;;;;;;;;;;;;;;;15.88;56.09;100373.47;4950685;29;19914;-82
2023/04/26 00:12:29;;;;;;;;;;;;;;;15.81;58.26;100378.78;4960512;28;19914;-82
2023/04/26 00:15:21;;;;;;;;;;;;;;;15.88;53.35;100384.44;4962519;28;19914;-83
2023/04/26 00:18:13;;;;;;;;;;;;;;;15.92;52.74;100377.09;4966368;28;19914;-83
2023/04/26 00:21:05;;;;;;;;;;;;;;;15.85;54.36;100381.63;4943960;29;19914;-83
2023/04/26 00:23:57;;;;;;;;;;;;;;;15.74;57.44;100378.66;4942694;29;19918;-82
2023/04/26 00:26:49;;;;;;;;;;;;;;;15.69;59.50;100373.44;4941092;29;19918;-82
2023/04/26 00:29:39;;;;;;;;;;;;;;;15.70;60.44;100380.50;4944249;29;19914;-81
2023/04/26 00:32:31;;;;;;;;;;;;;;;15.71;61.26;100374.66;4949292;29;20515;-83
2023/04/26 00:35:20;;;;;;;;;;;;;;;15.74;62.38;100382.19;4961940;28;19914;-82
2023/04/26 00:38:13;;;;;;;;;;;;;;;15.76;63.27;100374.38;4966278;28;19914;-82
2023/04/26 00:41:05;;;;;;;;;;;;;;;15.77;63.02;100375.19;4968566;28;19918;-82
2023/04/26 00:43:56;;;;;;;;;;;;;;;15.77;62.08;100375.19;4966620;28;19918;-82
2023/04/26 00:46:48;;;;;;;;;;;;;;;15.76;60.40;100377.13;4964994;28;19918;-83
2023/04/26 00:49:41;;;;;;;;;;;;;;;15.77;61.95;100375.97;4964970;29;19914;-83
2023/04/26 00:52:33;;;;;;;;;;;;;;;15.83;55.62;100390.22;4965447;28;19914;-83
2023/04/26 00:55:25;;;;;;;;;;;;;;;15.81;54.05;100387.81;4956570;28;20301;-83
2023/04/26 00:58:17;;;;;;;;;;;;;;;15.76;53.29;100387.28;4949519;29;19914;-83
2023/04/26 01:01:09;;;;;;;;;;;;;;;15.82;51.41;100389.41;4964691;29;20294;-83
2023/04/26 01:04:01;;;;;;;;;;;;;;;15.74;54.55;100386.88;4964114;29;20282;-84
2023/04/26 01:06:53;;;;;;;;;;;;;;;15.65;57.51;100383.50;4964579;29;19918;-83
2023/04/26 01:09:45;;;;;;;;;;;;;;;15.62;58.92;100376.03;4978103;28;19914;-83
2023/04/26 01:12:35;;;;;;;;;;;;;;;15.68;54.03;100391.03;4964180;28;19918;-83
2023/04/26 01:15:27;;;;;;;;;;;;;;;15.68;53.84;100399.28;4964182;29;19918;-83
2023/04/26 01:18:19;;;;;;;;;;;;;;;15.65;53.35;100399.97;4976417;28;19914;-82
2023/04/26 01:21:10;;;;;;;;;;;;;;;15.62;54.48;100408.91;4966369;28;19914;-83
2023/04/26 01:24:00;;;;;;;;;;;;;;;15.56;54.32;100418.56;4964043;28;19921;-83
2023/04/26 01:26:50;;;;;;;;;;;;;;;15.52;54.49;100414.94;4967864;28;19918;-83
2023/04/26 01:29:42;;;;;;;;;;;;;;;15.50;56.22;100414.47;4962613;29;20374;-83
2023/04/26 01:32:34;;;;;;;;;;;;;;;15.50;56.11;100414.47;4962937;29;19918;-83
2023/04/26 01:35:26;;;;;;;;;;;;;;;15.46;58.36;100416.31;4966848;28;19914;-83
2023/04/26 01:38:18;;;;;;;;;;;;;;;15.40;58.47;100422.06;4963837;28;20281;-81
2023/04/26 01:41:10;;;;;;;;;;;;;;;15.43;58.04;100431.53;4961177;28;19914;-81
2023/04/26 01:44:02;;;;;;;;;;;;;;;15.44;58.51;100424.13;4961245;29;19914;-81
2023/04/26 01:46:54;;;;;;;;;;;;;;;15.43;58.86;100428.00;4961678;28;19918;-81
2023/04/26 01:49:46;;;;;;;;;;;;;;;15.37;57.91;100432.97;4965891;28;19914;-81
2023/04/26 01:52:36;;;;;;;;;;;;;;;15.34;57.28;100428.16;4962127;28;19914;-81
2023/04/26 01:55:28;;;;;;;;;;;;;;;15.34;56.82;100436.38;4962436;28;19914;-81
2023/04/26 01:58:20;;;;;;;;;;;;;;;15.33;56.65;100441.09;4965535;28;19915;-82
2023/04/26 02:01:12;;;;;;;;;;;;;;;15.33;55.26;100443.84;4963751;28;19914;-81
2023/04/26 02:04:04;;;;;;;;;;;;;;;15.34;54.09;100437.19;4952120;28;19915;-81
2023/04/26 02:06:55;;;;;;;;;;;;;;;15.35;54.16;100438.78;4934251;29;19918;-82
2023/04/26 02:09:45;;;;;;;;;;;;;;;15.38;52.96;100435.34;4942130;29;19915;-82
2023/04/26 02:12:37;;;;;;;;;;;;;;;15.34;53.58;100433.66;4935562;29;19915;-81
2023/04/26 02:15:29;;;;;;;;;;;;;;;15.30;53.50;100432.75;4938431;29;20375;-82
2023/04/26 02:18:21;;;;;;;;;;;;;;;15.25;55.67;100435.78;4936752;29;20371;-81
2023/04/26 02:21:13;;;;;;;;;;;;;;;15.23;54.71;100433.41;4940413;29;19915;-82
2023/04/26 02:24:05;;;;;;;;;;;;;;;15.20;55.23;100447.00;4922816;29;19915;-81
2023/04/26 02:26:59;;;;;;;;;;;;;;;15.24;52.11;100437.72;4922033;29;19923;-81
2023/04/26 02:29:51;;;;;;;;;;;;;;;15.17;55.66;100440.28;4923026;29;19919;-80
2023/04/26 02:32:43;;;;;;;;;;;;;;;15.16;53.62;100440.63;4922384;29;19915;-80
2023/04/26 02:35:35;;;;;;;;;;;;;;;15.12;57.11;100439.75;4927260;29;19915;-81
2023/04/26 02:38:30;;;;;;;;;;;;;;;15.06;59.38;100444.69;4939078;29;19918;-81
2023/04/26 02:41:21;;;;;;;;;;;;;;;15.05;60.75;100437.63;4932204;29;19915;-81
2023/04/26 02:44:13;;;;;;;;;;;;;;;15.01;60.62;100444.94;4958311;28;19915;-80
2023/04/26 02:47:05;;;;;;;;;;;;;;;15.02;59.27;100441.06;4943719;29;19919;-80
2023/04/26 02:49:57;;;;;;;;;;;;;;;15.04;57.93;100452.44;4954362;28;19918;-81
2023/04/26 02:52:49;;;;;;;;;;;;;;;15.03;56.76;100461.84;4938316;29;19915;-80
2023/04/26 02:55:41;;;;;;;;;;;;;;;15.03;54.90;100453.63;4936312;29;20382;-80
2023/04/26 02:58:33;;;;;;;;;;;;;;;15.05;53.45;100465.00;4921530;29;19915;-82
2023/04/26 03:01:25;;;;;;;;;;;;;;;14.94;54.38;100455.69;4944914;28;19922;-82
2023/04/26 03:04:16;;;;;;;;;;;;;;;14.93;55.51;100459.63;4952373;28;19915;-82
2023/04/26 03:07:08;;;;;;;;;;;;;;;14.94;53.79;100456.50;4940508;29;19919;-82
2023/04/26 03:10:00;;;;;;;;;;;;;;;14.94;53.33;100463.91;4943419;29;19915;-81
2023/04/26 03:12:52;;;;;;;;;;;;;;;14.85;53.76;100457.81;4950196;29;19914;-81
2023/04/26 03:15:45;;;;;;;;;;;;;;;14.76;55.46;100468.13;4941219;29;19915;-81
2023/04/26 03:18:37;;;;;;;;;;;;;;;14.81;55.10;100467.88;4942747;29;20332;-81
2023/04/26 03:21:29;;;;;;;;;;;;;;;14.79;55.13;100481.09;4963171;23;19915;-80
2023/04/26 03:24:21;;;;;;;;;;;;;;;14.72;57.67;100481.72;4944607;28;20317;-81
2023/04/26 03:27:13;;;;;;;;;;;;;;;14.73;56.50;100477.81;4934028;29;19922;-79
2023/04/26 03:30:05;;;;;;;;;;;;;;;14.74;57.59;100475.88;4941850;28;19915;-80
2023/04/26 03:32:57;;;;;;;;;;;;;;;14.71;59.74;100473.84;4942451;28;19914;-80
2023/04/26 03:35:49;;;;;;;;;;;;;;;14.70;60.37;100486.72;4923245;29;19914;-80
2023/04/26 03:38:42;;;;;;;;;;;;;;;14.52;60.89;100486.25;4937008;28;20374;-81
2023/04/26 03:41:34;;;;;;;;;;;;;;;14.48;60.35;100492.72;4924679;29;19914;-82
2023/04/26 03:44:26;;;;;;;;;;;;;;;14.58;61.80;100486.00;4930005;29;19914;-82
2023/04/26 03:47:18;;;;;;;;;;;;;;;14.64;61.55;100495.53;4938478;28;19918;-80
2023/04/26 03:50:11;;;;;;;;;;;;;;;14.62;60.97;100497.84;4951687;28;19915;-82
2023/04/26 03:53:03;;;;;;;;;;;;;;;14.68;59.55;100497.22;4937485;29;19919;-80
2023/04/26 03:55:55;;;;;;;;;;;;;;;14.71;54.75;100499.28;4930259;28;19915;-81
2023/04/26 03:58:47;;;;;;;;;;;;;;;14.70;56.30;100513.31;4906411;29;20379;-79
2023/04/26 04:01:39;;;;;;;;;;;;;;;14.66;59.79;100509.69;4902223;29;19915;-81
2023/04/26 04:04:31;;;;;;;;;;;;;;;14.68;56.12;100510.13;4900062;29;19915;-81
2023/04/26 04:07:23;;;;;;;;;;;;;;;14.69;54.82;100508.97;4898237;29;19923;-79
2023/04/26 04:10:16;;;;;;;;;;;;;;;14.66;54.98;100518.69;4900869;29;19915;-81
2023/04/26 04:13:08;;;;;;;;;;;;;;;14.67;53.52;100514.00;4898880;29;19915;-79
2023/04/26 04:16:00;;;;;;;;;;;;;;;14.63;54.65;100513.13;4902664;29;19915;-79
2023/04/26 04:18:52;;;;;;;;;;;;;;;14.57;59.93;100520.78;4900315;29;19915;-80
2023/04/26 04:21:44;;;;;;;;;;;;;;;14.58;63.76;100525.06;4901945;29;20379;-80
2023/04/26 04:24:36;;;;;;;;;;;;;;;14.52;63.06;100531.97;4901213;29;19915;-79
2023/04/26 04:27:29;;;;;;;;;;;;;;;14.55;60.98;100536.72;4899551;29;19919;-82
2023/04/26 04:30:21;;;;;;;;;;;;;;;14.55;55.93;100534.78;4910603;29;20383;-81
2023/04/26 04:33:13;;;;;;;;;;;;;;;14.47;56.86;100538.47;4897843;29;19919;-80
2023/04/26 04:36:05;;;;;;;;;;;;;;;14.45;57.87;100540.75;4898040;29;19919;-78
2023/04/26 04:38:57;;;;;;;;;;;;;;;14.47;61.86;100541.22;4901354;29;19916;-79
2023/04/26 04:41:49;;;;;;;;;;;;;;;14.49;65.34;100546.31;4914459;29;19923;-79
2023/04/26 04:44:41;;;;;;;;;;;;;;;14.45;65.29;100545.41;4909169;29;19923;-80
2023/04/26 04:47:30;;;;;;;;;;;;;;;14.49;56.10;100547.13;4926240;29;19919;-77
2023/04/26 04:50:22;;;;;;;;;;;;;;;14.46;60.98;100555.22;4922184;29;19919;-79
2023/04/26 04:53:14;;;;;;;;;;;;;;;14.50;63.34;100550.66;4913622;29;19919;-79
2023/04/26 04:56:06;;;;;;;;;;;;;;;14.49;66.59;100558.06;4916010;29;19915;-79
2023/04/26 04:58:56;;;;;;;;;;;;;;;14.51;68.44;100563.19;4915923;29;19915;-79
2023/04/26 05:01:48;;;;;;;;;;;;;;;14.48;69.09;100569.34;4926154;29;20330;-80
2023/04/26 05:04:41;;;;;;;;;;;;;;;14.45;68.70;100562.63;4923166;29;19915;-78
2023/04/26 05:07:33;;;;;;;;;;;;;;;14.53;69.96;100569.91;4920326;29;19918;-79
2023/04/26 05:10:23;;;;;;;;;;;;;;;14.50;63.71;100567.88;4940727;29;19914;-80
2023/04/26 05:13:15;;;;;;;;;;;;;;;14.60;56.86;100565.78;4934974;29;19914;-81
2023/04/26 05:16:08;;;;;;;;;;;;;;;14.58;55.83;100576.31;4939720;29;19914;-82
2023/04/26 05:19:00;;;;;;;;;;;;;;;14.56;54.86;100576.63;4951095;29;19915;-79
2023/04/26 05:21:52;;;;;;;;;;;;;;;14.59;54.57;100588.81;4937077;29;19914;-82
2023/04/26 05:24:44;;;;;;;;;;;;;;;14.49;60.24;100585.44;4942011;29;19918;-79
2023/04/26 05:27:36;;;;;;;;;;;;;;;14.47;59.85;100598.66;4939939;29;19919;-80
2023/04/26 05:30:58;;;;;;;;;;;;;;;14.47;57.32;100586.91;4923724;29;20382;-82
2023/04/26 05:33:52;;;;;;;;;;;;;;;14.46;60.13;100590.78;4953369;28;19915;-81
2023/04/26 05:36:51;;;;;;;;;;;;;;;14.44;62.38;100602.06;4921557;29;19918;-82
2023/04/26 05:39:43;;;;;;;;;;;;;;;14.46;61.94;100607.22;4921707;29;20282;-80
2023/04/26 05:42:35;;;;;;;;;;;;;;;14.47;64.58;100609.63;4919774;29;19915;-82
2023/04/26 05:45:28;;;;;;;;;;;;;;;14.50;63.47;100614.38;4922772;29;19915;-81
2023/04/26 05:48:21;;;;;;;;;;;;;;;14.49;62.58;100609.25;4920873;29;19919;-82
2023/04/26 05:51:13;;;;;;;;;;;;;;;14.48;63.26;100613.91;4924186;29;19915;-81
2023/04/26 05:54:05;;;;;;;;;;;;;;;14.49;65.07;100607.31;4914653;29;19915;-82
2023/04/26 05:56:57;;;;;;;;;;;;;;;14.55;66.40;100614.16;4931688;29;19914;-80
2023/04/26 05:59:49;;;;;;;;;;;;;;;14.60;67.25;100612.31;4920062;29;19915;-82
2023/04/26 06:02:41;;;;;;;;;;;;;;;14.63;67.25;100620.63;4937670;29;19914;-83
2023/04/26 06:05:36;;;;;;;;;;;;;;;14.66;68.43;100616.41;4943308;29;19914;-82
2023/04/26 06:08:29;;;;;;;;;;;;;;;14.14;60.16;100623.38;4925320;29;19923;-75
2023/04/26 06:11:21;;;;;;;;;;;;;;;14.33;57.19;100624.72;4911723;29;19915;-76
2023/04/26 06:14:13;;;;;;;;;;;;;;;14.16;58.56;100628.50;4927853;29;20310;-76
2023/04/26 06:17:05;;;;;;;;;;;;;;;14.35;58.79;100627.94;4929219;29;19919;-76
2023/04/26 06:19:57;;;;;;;;;;;;;;;14.33;56.72;100622.78;4931146;29;19915;-76
2023/04/26 06:22:49;;;;;;;;;;;;;;;14.32;56.46;100632.16;4921855;29;20394;-76
2023/04/26 06:25:44;;;;;;;;;;;;;;;14.76;56.51;100632.38;4919793;29;19915;-76
2023/04/26 06:28:36;;;;;;;;;;;;;;;14.90;56.38;100639.06;4916991;29;19918;-75
2023/04/26 06:31:28;;;;;;;;;;;;;;;15.43;54.31;100636.25;4926818;28;19914;-76
2023/04/26 06:34:20;;;;;;;;;;;;;;;15.44;53.58;100635.13;4932545;28;20295;-77
2023/04/26 06:37:12;;;;;;;;;;;;;;;15.47;54.52;100637.94;4923821;28;19923;-76
2023/04/26 06:40:04;;;;;;;;;;;;;;;15.29;55.71;100648.41;4926736;28;19918;-76
2023/04/26 06:42:56;;;;;;;;;;;;;;;16.41;54.97;100646.28;4926842;29;19915;-76
2023/04/26 06:45:58;;;;;;;;;;;;;;;16.49;55.04;100650.00;4925326;29;19914;-76
2023/04/26 06:48:50;;;;;;;;;;;;;;;16.62;53.43;100649.56;4923797;29;20382;-76
2023/04/26 06:51:42;;;;;;;;;;;;;;;16.58;53.03;100653.34;4898424;29;20302;-75
2023/04/26 06:54:34;;;;;;;;;;;;;;;16.86;51.89;100659.53;4901345;29;20310;-77
2023/04/26 06:57:26;;;;;;;;;;;;;;;16.73;50.76;100651.75;4898490;29;19915;-76
2023/04/26 07:00:18;;;;;;;;;;;;;;;16.87;52.04;100663.84;4921830;29;19915;-75
2023/04/26 07:03:10;;;;;;;;;;;;;;;17.01;51.35;100655.13;4919284;29;19915;-76
2023/04/26 07:06:03;;;;;;;;;;;;;;;17.09;49.12;100660.41;4924051;29;19915;-76
2023/04/26 07:08:55;;;;;;;;;;;;;;;17.29;50.87;100666.72;4925241;29;19927;-76
2023/04/26 07:11:46;;;;;;;;;;;;;;;17.43;50.69;100669.75;4924568;29;19915;-77
2023/04/26 07:14:37;;;;;;;;;;;;;;;17.48;47.87;100661.19;4915554;29;19915;-77
2023/04/26 07:17:29;;;;;;;;;;;;;;;17.62;47.29;100671.72;4921077;29;19915;-74
2023/04/26 07:20:21;;;;;;;;;;;;;;;17.69;47.68;100666.34;4900148;29;19915;-80
2023/04/26 07:23:15;;;;;;;;;;;;;;;17.30;43.76;100667.50;4918526;29;19914;-80
2023/04/26 07:26:07;;;;;;;;;;;;;;;16.98;45.34;100667.63;4923074;29;19915;-80
2023/04/26 07:28:59;;;;;;;;;;;;;;;17.36;45.29;100658.63;4923012;29;19919;-82
2023/04/26 07:31:51;;;;;;;;;;;;;;;17.30;40.60;100659.25;4915709;29;20394;-75
2023/04/26 07:34:43;;;;;;;;;;;;;;;17.19;41.03;100663.75;4916941;29;19915;-82
2023/04/26 07:37:35;;;;;;;;;;;;;;;17.35;42.15;100661.72;4919759;29;19915;-78
2023/04/26 07:40:27;;;;;;;;;;;;;;;17.45;41.20;100661.94;4918975;29;20309;-78
2023/04/26 07:43:17;;;;;;;;;;;;;;;17.36;41.35;100668.81;4925940;29;19918;-78
2023/04/26 07:46:10;;;;;;;;;;;;;;;17.45;40.84;100666.63;4935670;28;20332;-78
2023/04/26 07:49:02;;;;;;;;;;;;;;;17.31;41.37;100671.84;4916528;29;20298;-78
2023/04/26 07:51:52;;;;;;;;;;;;;;;17.36;42.71;100679.81;4930295;29;19915;-78
2023/04/26 07:54:46;;;;;;;;;;;;;;;17.31;41.69;100677.34;4931312;29;19914;-78
2023/04/26 07:57:38;;;;;;;;;;;;;;;17.26;40.39;100672.16;4918233;29;19915;-78
2023/04/26 08:00:30;;;;;;;;;;;;;;;17.56;41.28;100678.66;4915293;29;20388;-78
2023/04/26 08:03:20;;;;;;;;;;;;;;;17.60;41.77;100676.78;4921082;29;20389;-78
2023/04/26 08:06:12;;;;;;;;;;;;;;;17.56;41.71;100684.16;4942079;28;19915;-78
2023/04/26 08:09:04;;;;;;;;;;;;;;;17.61;42.22;100674.84;4940095;29;19918;-78
2023/04/26 08:11:56;;;;;;;;;;;;;;;17.93;43.37;100671.50;4938397;29;20299;-78
2023/04/26 08:14:48;;;;;;;;;;;;;;;18.12;41.14;100675.38;4929666;29;19915;-78
2023/04/26 08:17:40;;;;;;;;;;;;;;;18.07;40.36;100672.94;4919445;29;19915;-79
2023/04/26 08:20:32;;;;;;;;;;;;;;;17.75;40.71;100684.16;4938073;28;19914;-78
2023/04/26 08:23:21;;;;;;;;;;;;;;;17.94;40.96;100684.13;4922904;29;19915;-79
2023/04/26 08:26:13;;;;;;;;;;;;;;;18.25;40.47;100682.28;4920617;29;19915;-78
2023/04/26 08:29:05;;;;;;;;;;;;;;;18.30;40.29;100687.47;4927063;29;19923;-78
2023/04/26 08:31:57;;;;;;;;;;;;;;;18.42;40.37;100687.31;4951870;28;20285;-78
2023/04/26 08:34:49;;;;;;;;;;;;;;;18.46;40.69;100685.41;4951059;29;19915;-79
2023/04/26 08:37:41;;;;;;;;;;;;;;;18.50;42.39;100686.25;4934715;29;19914;-79
2023/04/26 08:40:34;;;;;;;;;;;;;;;18.50;41.62;100683.50;4952422;29;20362;-76
2023/04/26 08:43:26;;;;;;;;;;;;;;;18.52;41.63;100686.69;4934150;29;19915;-78
2023/04/26 08:46:20;;;;;;;;;;;;;;;18.56;40.68;100697.78;4934868;29;20366;-77
2023/04/26 08:49:26;;;;;;;;;;;;;;;18.65;40.02;100690.84;4924590;29;19918;-78
2023/04/26 08:52:21;;;;;;;;;;;;;;;18.76;40.33;100689.06;4912469;29;19914;-77
2023/04/26 08:55:15;;;;;;;;;;;;;;;18.76;40.22;100685.50;4930336;29;19944;-77
2023/04/26 08:58:07;;;;;;;;;;;;;;;18.86;41.58;100695.88;4918364;29;19919;-77
2023/04/26 09:01:00;;;;;;;;;;;;;;;18.87;40.91;100696.69;4917371;29;19916;-78
2023/04/26 09:03:52;;;;;;;;;;;;;;;18.82;39.95;100691.47;4922409;29;19926;-77
2023/04/26 09:06:42;;;;;;;;;;;;;;;18.91;40.33;100697.53;4918631;29;19919;-78
2023/04/26 09:09:36;;;;;;;;;;;;;;;19.21;41.62;100701.09;4918110;29;20331;-77
2023/04/26 09:12:28;;;;;;;;;;;;;;;19.15;40.68;100703.38;4936568;29;19915;-77
2023/04/26 09:15:21;;;;;;;;;;;;;;;19.34;41.98;100705.22;4920409;29;20337;-78
2023/04/26 09:18:20;;;;;;;;;;;;;;;19.32;41.93;100698.47;4917015;29;19915;-78
2023/04/26 09:21:12;;;;;;;;;;;;;;;19.50;41.31;100703.09;4920329;29;19943;-79
2023/04/26 09:24:01;;;;;;;;;;;;;;;19.58;41.31;100704.75;5014808;23;19926;-88
2023/04/26 09:27:02;;;;;;;;;;;;;;;19.68;41.06;100708.00;4969830;28;19919;-89
2023/04/26 09:30:10;;;;;;;;;;;;;;;19.76;41.10;100704.94;4968744;28;19918;-88
2023/04/26 09:33:04;;;;;;;;;;;;;;;19.76;42.63;100698.66;4966965;29;19947;-83
2023/04/26 09:35:54;;;;;;;;;;;;;;;19.79;42.10;100700.66;4963109;28;19914;-82
2023/04/26 09:38:46;;;;;;;;;;;;;;;19.86;39.85;100703.50;4986904;28;19913;-89
2023/04/26 09:41:48;;;;;;;;;;;;;;;19.92;41.24;100700.00;4960736;28;19915;-77
2023/04/26 09:44:40;;;;;;;;;;;;;;;19.93;43.07;100698.03;4955719;28;19914;-78
2023/04/26 09:47:32;;;;;;;;;;;;;;;19.94;42.67;100696.88;4965537;28;19914;-77
2023/04/26 09:50:30;;;;;;;;;;;;;;;19.95;41.69;100695.69;4965111;28;19918;-77
2023/04/26 09:53:35;;;;;;;;;;;;;;;19.96;42.12;100691.78;4961459;28;19914;-76
2023/04/26 09:56:27;;;;;;;;;;;;;;;19.96;41.14;100700.06;4975864;28;19914;-76
2023/04/26 09:59:19;;;;;;;;;;;;;;;19.98;41.19;100692.16;4976162;28;19913;-76
2023/04/26 10:02:14;;;;;;;;;;;;;;;19.99;41.61;100693.75;4975885;28;19917;-76
2023/04/26 10:05:08;;;;;;;;;;;;;;;19.97;42.20;100687.81;4975779;28;20365;-76
2023/04/26 10:08:00;;;;;;;;;;;;;;;20.01;42.02;100696.94;4951955;28;19918;-76
2023/04/26 10:10:52;;;;;;;;;;;;;;;19.99;41.09;100691.81;4949489;28;20378;-77
2023/04/26 10:13:44;;;;;;;;;;;;;;;20.06;41.41;100691.84;4947173;28;19915;-76
2023/04/26 10:16:36;;;;;;;;;;;;;;;20.07;41.19;100689.88;4953773;28;19914;-77
2023/04/26 10:19:28;;;;;;;;;;;;;;;20.05;40.44;100692.25;4949356;28;19922;-76
2023/04/26 10:22:25;;;;;;;;;;;;;;;20.06;38.78;100686.34;4947374;28;20654;-76
2023/04/26 10:25:17;;;;;;;;;;;;;;;20.10;40.19;100685.59;4950114;28;20300;-76
2023/04/26 10:28:09;;;;;;;;;;;;;;;20.11;40.51;100679.69;4950523;28;20329;-77
2023/04/26 10:31:01;;;;;;;;;;;;;;;20.12;41.13;100686.78;4953626;28;19918;-76
2023/04/26 10:34:10;;;;;;;;;;;;;;;20.14;39.86;100681.69;4946581;28;19922;-76
2023/04/26 10:37:12;;;;;;;;;;;;;;;20.15;40.15;100677.75;4955866;28;19918;-76
2023/04/26 10:40:20;;;;;;;;;;;;;;;20.22;40.55;100675.03;4956712;28;19915;-76
2023/04/26 10:43:13;;;;;;;;;;;;;;;20.25;40.73;100676.25;4948678;28;19926;-77
2023/04/26 10:46:22;;;;;;;;;;;;;;;20.38;40.85;100661.00;4943851;28;20370;-77
2023/04/26 10:49:20;;;;;;;;;;;;;;;20.33;41.60;100661.34;4946570;29;20569;-77
2023/04/26 10:52:18;;;;;;;;;;;;;;;20.37;42.04;100662.97;4945081;29;19915;-76
2023/04/26 10:55:09;;;;;;;;;;;;;;;20.42;42.14;100651.56;4943318;29;19915;-77
2023/04/26 10:58:01;;;;;;;;;;;;;;;20.46;41.56;100668.97;4936327;29;19915;-77
2023/04/26 11:01:20;;;;;;;;;;;;;;;20.52;41.13;100654.81;4936433;29;19915;-77
2023/04/26 11:04:11;;;;;;;;;;;;;;;20.54;40.96;100656.00;4935849;29;20394;-75
2023/04/26 11:07:03;;;;;;;;;;;;;;;20.68;40.78;100647.00;4951283;28;19914;-77
2023/04/26 11:09:53;;;;;;;;;;;;;;;20.60;38.38;100643.41;4953507;29;20302;-78
2023/04/26 11:13:01;;;;;;;;;;;;;;;20.88;38.36;100654.63;4955977;29;20571;-78
2023/04/26 11:15:53;;;;;;;;;;;;;;;21.23;40.38;100636.69;4947101;29;19919;-79
2023/04/26 11:18:49;;;;;;;;;;;;;;;21.63;39.23;100633.66;4959180;28;19914;-78
2023/04/26 11:21:41;;;;;;;;;;;;;;;21.90;39.27;100636.84;4940509;29;20054;-78
2023/04/26 11:24:42;;;;;;;;;;;;;;;22.19;37.70;100632.16;4947565;28;19914;-79
2023/04/26 11:27:34;;;;;;;;;;;;;;;22.47;36.26;100637.66;4972726;28;20285;-79
2023/04/26 11:30:26;;;;;;;;;;;;;;;24.18;36.20;100637.75;4966777;28;19918;-77
2023/04/26 11:33:21;;;;;;;;;;;;;;;31.73;24.06;100638.34;4958675;28;19914;-77
2023/04/26 11:36:13;;;;;;;;;;;;;;;34.68;20.26;100646.19;4969296;28;19914;-78
2023/04/26 11:39:05;;;;;;;;;;;;;;;34.57;20.24;100645.16;4976660;28;19914;-79
2023/04/26 11:42:05;;;;;;;;;;;;;;;33.64;21.58;100651.75;4941767;28;19915;-78
2023/04/26 11:44:58;;;;;;;;;;;;;;;33.41;20.26;100647.59;4941346;28;20298;-78
2023/04/26 11:47:50;;;;;;;;;;;;;;;32.35;22.75;100643.84;4975698;28;19914;-78
2023/04/26 11:50:42;;;;;;;;;;;;;;;31.56;23.04;100634.16;4965028;28;19919;-78
2023/04/26 11:53:40;;;;;;;;;;;;;;;29.94;24.39;100629.50;4940632;28;19915;-78
2023/04/26 11:56:32;;;;;;;;;;;;;;;27.90;28.90;100627.13;4949948;28;19914;-79
2023/04/26 11:59:27;;;;;;;;;;;;;;;27.38;27.88;100617.94;4939467;29;19914;-78
2023/04/26 12:02:19;;;;;;;;;;;;;;;26.37;29.30;100618.28;4939142;29;19915;-78
2023/04/26 12:05:11;;;;;;;;;;;;;;;26.44;29.81;100613.81;4937285;29;19922;-78
2023/04/26 12:08:03;;;;;;;;;;;;;;;25.33;30.47;100617.47;4955792;28;19915;-77
2023/04/26 12:10:55;;;;;;;;;;;;;;;25.55;28.87;100607.63;4958662;28;19914;-78
2023/04/26 12:13:47;;;;;;;;;;;;;;;25.02;31.64;100608.31;4937878;29;19915;-77
2023/04/26 12:16:39;;;;;;;;;;;;;;;25.70;30.33;100601.88;4937917;29;19915;-79
2023/04/26 12:19:34;;;;;;;;;;;;;;;25.12;31.09;100603.81;4941401;29;19915;-78
2023/04/26 12:22:26;;;;;;;;;;;;;;;24.81;32.04;100614.09;4936879;29;19915;-79
2023/04/26 12:25:20;;;;;;;;;;;;;;;24.50;33.59;100607.69;4937456;29;19914;-79
2023/04/26 12:28:15;;;;;;;;;;;;;;;24.18;34.36;100598.84;4939953;29;19918;-79
2023/04/26 12:31:07;;;;;;;;;;;;;;;23.96;32.85;100603.78;4938958;29;19922;-78
2023/04/26 12:33:58;;;;;;;;;;;;;;;24.80;33.06;100595.03;4941844;29;19915;-79
2023/04/26 12:36:48;;;;;;;;;;;;;;;24.24;33.21;100597.19;4941374;29;19914;-79
2023/04/26 12:39:40;;;;;;;;;;;;;;;24.83;31.97;100594.22;4941570;29;19915;-79
2023/04/26 12:42:32;;;;;;;;;;;;;;;24.91;30.69;100601.31;4945180;29;19918;-78
2023/04/26 12:45:24;;;;;;;;;;;;;;;24.59;29.46;100591.28;4941652;29;19915;-78
2023/04/26 12:48:13;;;;;;;;;;;;;;;24.89;29.30;100598.16;4940058;29;19915;-78
2023/04/26 12:51:05;;;;;;;;;;;;;;;24.73;30.79;100598.72;4939383;29;19915;-78
2023/04/26 12:53:57;;;;;;;;;;;;;;;24.90;29.63;100594.16;4939331;29;19915;-78
2023/04/26 12:56:49;;;;;;;;;;;;;;;24.78;27.34;100600.25;4938771;29;19919;-78
2023/04/26 12:59:41;;;;;;;;;;;;;;;24.17;28.05;100597.28;4939229;29;19919;-78
2023/04/26 13:02:33;;;;;;;;;;;;;;;24.66;27.77;100584.88;4939150;29;19915;-78
2023/04/26 13:05:25;;;;;;;;;;;;;;;24.00;31.08;100587.06;4944892;29;19914;-78
2023/04/26 13:08:17;;;;;;;;;;;;;;;22.79;33.33;100582.19;4939249;29;19914;-78
2023/04/26 13:11:09;;;;;;;;;;;;;;;22.81;33.27;100587.31;4938968;29;19914;-78
2023/04/26 13:14:01;;;;;;;;;;;;;;;23.61;30.32;100581.81;4941252;29;19918;-80
2023/04/26 13:16:54;;;;;;;;;;;;;;;23.70;32.55;100582.94;4939573;29;20302;-78
2023/04/26 13:19:46;;;;;;;;;;;;;;;24.52;31.36;100571.91;4937607;29;19915;-78
2023/04/26 13:22:38;;;;;;;;;;;;;;;24.34;31.40;100570.50;4941730;29;19915;-80
2023/04/26 13:25:30;;;;;;;;;;;;;;;24.23;29.40;100565.84;4940422;29;19922;-80
2023/04/26 13:28:22;;;;;;;;;;;;;;;23.56;28.13;100571.94;4940617;28;20390;-79
2023/04/26 13:31:14;;;;;;;;;;;;;;;23.22;28.91;100568.13;4948674;28;20345;-79
2023/04/26 13:34:06;;;;;;;;;;;;;;;23.09;31.11;100564.22;4944343;28;19915;-78
2023/04/26 13:36:58;;;;;;;;;;;;;;;23.10;31.98;100561.06;4947150;28;19919;-79
2023/04/26 13:39:50;;;;;;;;;;;;;;;23.00;32.92;100564.69;4952633;28;19915;-79
2023/04/26 13:42:42;;;;;;;;;;;;;;;23.06;30.52;100559.50;4946180;28;19926;-80
2023/04/26 13:45:34;;;;;;;;;;;;;;;22.52;31.29;100556.09;4954218;28;19915;-79
2023/04/26 13:48:26;;;;;;;;;;;;;;;22.44;27.50;100551.78;4972557;28;19914;-79
2023/04/26 13:51:18;;;;;;;;;;;;;;;22.42;29.72;100552.16;4963987;28;19914;-80
2023/04/26 13:54:10;;;;;;;;;;;;;;;22.34;27.79;100555.34;4969562;28;19914;-80
2023/04/26 13:57:02;;;;;;;;;;;;;;;22.35;25.58;100552.16;4950941;28;19923;-81
2023/04/26 13:59:54;;;;;;;;;;;;;;;22.48;27.62;100558.09;4945531;28;19915;-82
2023/04/26 14:02:46;;;;;;;;;;;;;;;22.51;27.65;100554.50;4968998;28;19914;-82
2023/04/26 14:05:38;;;;;;;;;;;;;;;22.56;26.20;100546.56;4970338;28;19915;-80
2023/04/26 14:08:30;;;;;;;;;;;;;;;22.43;26.60;100542.66;4966500;28;19914;-81
2023/04/26 14:11:22;;;;;;;;;;;;;;;22.21;24.19;100535.56;4962447;28;19918;-80
2023/04/26 14:14:11;;;;;;;;;;;;;;;22.06;25.18;100534.00;4960264;28;19914;-80
2023/04/26 14:17:03;;;;;;;;;;;;;;;22.04;25.84;100545.50;4979398;28;19914;-80
2023/04/26 14:19:55;;;;;;;;;;;;;;;22.01;27.87;100554.59;4978552;28;19914;-80
2023/04/26 14:22:47;;;;;;;;;;;;;;;21.94;27.54;100549.03;4978776;28;19913;-80
2023/04/26 14:25:39;;;;;;;;;;;;;;;21.87;26.51;100543.50;4980267;28;19914;-80
2023/04/26 14:28:31;;;;;;;;;;;;;;;21.92;26.71;100543.09;4979258;28;19918;-81
2023/04/26 14:31:23;;;;;;;;;;;;;;;21.68;25.62;100541.91;4981811;28;20377;-79
2023/04/26 14:34:12;;;;;;;;;;;;;;;21.55;26.85;100539.91;4953377;29;20522;-80
2023/04/26 14:37:05;;;;;;;;;;;;;;;21.58;26.19;100536.38;4959183;29;19914;-80
2023/04/26 14:39:57;;;;;;;;;;;;;;;21.55;26.05;100537.13;4959157;29;19914;-80
2023/04/26 14:42:49;;;;;;;;;;;;;;;21.56;26.35;100528.44;4958496;29;19918;-80
2023/04/26 14:45:40;;;;;;;;;;;;;;;21.53;26.20;100518.19;4958244;29;19915;-79